createdAt,value
2018-02-05T00:01:00.399Z,79.00
2018-02-05T00:03:33.647Z,79.30
2018-02-05T00:06:06.157Z,79.10
2018-02-05T00:08:38.624Z,79.30
2018-02-05T00:11:11.133Z,79.10
2018-02-05T00:13:43.602Z,79.20
2018-02-05T05:33:01.484Z,75.80
2018-02-05T05:35:34.803Z,75.90
2018-02-05T05:38:07.284Z,75.90
2018-02-05T05:40:39.787Z,76.00
2018-02-05T05:43:12.272Z,76.10
2018-02-05T05:45:44.801Z,76.50
2018-02-05T05:48:17.282Z,76.40
2018-02-05T05:50:49.787Z,76.60
2018-02-05T05:53:22.300Z,76.40
2018-02-05T05:55:54.788Z,76.00
2018-02-05T05:58:27.312Z,76.10
2018-02-05T06:00:59.796Z,75.90
2018-02-05T06:03:32.295Z,76.10
2018-02-05T06:06:05.555Z,76.40
2018-02-05T06:08:38.064Z,76.40
2018-02-05T06:11:11.405Z,75.90
2018-02-05T06:13:43.903Z,75.80
2018-02-05T06:16:16.395Z,75.80
2018-02-05T06:18:48.907Z,75.70
2018-02-05T06:21:21.408Z,75.40
2018-02-05T06:23:53.913Z,75.10
2018-02-05T06:26:26.430Z,75.20
2018-02-05T06:28:58.926Z,75.30
2018-02-05T06:31:31.423Z,75.50
2018-02-05T06:34:03.911Z,75.50
2018-02-05T06:36:36.427Z,75.60
2018-02-05T06:39:09.680Z,75.60
2018-02-05T06:41:42.199Z,75.60
2018-02-05T06:44:15.448Z,75.70
2018-02-05T06:46:47.964Z,75.60
2018-02-05T06:49:21.240Z,75.10
2018-02-05T06:52:05.580Z,74.90
2018-02-05T06:54:49.974Z,75.20
2018-02-05T06:57:23.341Z,74.90
2018-02-05T06:59:55.877Z,74.90
2018-02-05T07:02:28.339Z,75.10
2018-02-05T07:05:00.833Z,74.70
2018-02-05T07:07:33.385Z,74.20
2018-02-05T07:10:05.844Z,73.90
2018-02-05T07:12:39.098Z,73.80
2018-02-05T07:15:11.713Z,73.70
2018-02-05T07:17:44.184Z,73.90
2018-02-05T07:20:17.480Z,74.20
2018-02-05T07:22:50.723Z,74.90
